Time;durP1;ratioP1;P1;durP2;ratioP2;P2;SDS_P1;SDS_P2;PMS_P1;PMS_P2;Temp;Humidity;BMP_temperature;BMP_pressure;BME280_temperature;BME280_humidity;BME280_pressure;Samples;Min_cycle;Max_cycle;Signal;HPM_P1;HPM_P2
2024/02/16 00:02:18;;;;;;;11.33;8.63;;;;;;;;;;4994244;28;20197;-58
2024/02/16 00:04:45;;;;;;;11.63;8.97;;;;;;;;;;4993531;28;20283;-58
2024/02/16 00:07:12;;;;;;;12.53;8.13;;;;;;;;;;4994868;28;20260;-58
2024/02/16 00:09:39;;;;;;;10.83;8.60;;;;;;;;;;4994540;28;20222;-58
2024/02/16 00:12:08;;;;;;;11.30;8.60;;;;;;;;;;4995030;28;20677;-58
2024/02/16 00:14:35;;;;;;;10.30;8.00;;;;;;;;;;4993508;28;20205;-58
2024/02/16 00:17:03;;;;;;;12.23;8.37;;;;;;;;;;4994673;28;20203;-57
2024/02/16 00:19:30;;;;;;;9.47;7.97;;;;;;;;;;4972440;28;20297;-60
2024/02/16 00:21:57;;;;;;;10.23;9.13;;;;;;;;;;5004701;28;20561;-58
2024/02/16 00:24:25;;;;;;;11.03;7.97;;;;;;;;;;5010619;28;20274;-57
2024/02/16 00:26:52;;;;;;;12.33;8.10;;;;;;;;;;5013652;28;20209;-58
2024/02/16 00:29:20;;;;;;;11.53;10.33;;;;;;;;;;5013373;28;20659;-58
2024/02/16 00:31:48;;;;;;;13.43;9.17;;;;;;;;;;5013357;28;20681;-58
2024/02/16 00:34:15;;;;;;;8.87;8.00;;;;;;;;;;5010641;28;20205;-58
2024/02/16 00:36:44;;;;;;;11.83;9.63;;;;;;;;;;5013494;28;20209;-58
2024/02/16 00:39:11;;;;;;;12.47;8.53;;;;;;;;;;5013384;28;20291;-58
2024/02/16 00:41:38;;;;;;;10.40;8.97;;;;;;;;;;5013229;28;20288;-58
2024/02/16 00:44:06;;;;;;;11.70;8.10;;;;;;;;;;5012384;28;20728;-58
2024/02/16 00:46:34;;;;;;;9.93;8.57;;;;;;;;;;5013041;28;20208;-58
2024/02/16 00:49:01;;;;;;;11.80;8.30;;;;;;;;;;5013220;28;20207;-58
2024/02/16 00:51:29;;;;;;;10.13;8.40;;;;;;;;;;5011905;28;20221;-58
2024/02/16 00:53:56;;;;;;;10.43;8.33;;;;;;;;;;5012131;28;20701;-58
2024/02/16 00:56:24;;;;;;;10.73;8.73;;;;;;;;;;5012938;28;20209;-58
2024/02/16 00:58:51;;;;;;;10.63;8.60;;;;;;;;;;5012858;28;20669;-59
2024/02/16 01:01:21;;;;;;;12.93;9.90;;;;;;;;;;5012654;28;20226;-58
2024/02/16 01:03:51;;;;;;;15.13;9.87;;;;;;;;;;5011915;28;20223;-57
2024/02/16 01:06:19;;;;;;;13.67;9.53;;;;;;;;;;5012982;28;20642;-58
2024/02/16 01:08:47;;;;;;;11.93;9.67;;;;;;;;;;4993178;28;20210;-58
2024/02/16 01:11:14;;;;;;;15.97;10.57;;;;;;;;;;4992956;28;20717;-58
2024/02/16 01:13:42;;;;;;;12.20;9.80;;;;;;;;;;4992542;28;20202;-58
2024/02/16 01:16:10;;;;;;;12.93;10.37;;;;;;;;;;4993790;28;20201;-58
2024/02/16 01:18:38;;;;;;;12.07;9.33;;;;;;;;;;4993363;28;20292;-58
2024/02/16 01:21:06;;;;;;;13.90;9.60;;;;;;;;;;4993489;28;20798;-58
2024/02/16 01:23:34;;;;;;;14.43;10.10;;;;;;;;;;4992598;28;20274;-58
2024/02/16 01:26:01;;;;;;;17.17;11.47;;;;;;;;;;4993295;28;20678;-58
2024/02/16 01:28:28;;;;;;;12.73;10.93;;;;;;;;;;4992752;28;20586;-58
2024/02/16 01:30:56;;;;;;;14.43;9.73;;;;;;;;;;4992666;28;20236;-58
2024/02/16 01:33:23;;;;;;;10.67;9.37;;;;;;;;;;4992294;28;20558;-58
2024/02/16 01:35:50;;;;;;;11.97;9.40;;;;;;;;;;4992760;28;20206;-58
2024/02/16 01:38:21;;;;;;;13.97;9.27;;;;;;;;;;4992719;28;20204;-58
2024/02/16 01:40:48;;;;;;;10.67;9.10;;;;;;;;;;4992248;28;20216;-58
2024/02/16 01:43:20;;;;;;;10.77;9.13;;;;;;;;;;4991621;28;20244;-58
2024/02/16 01:45:47;;;;;;;17.70;9.17;;;;;;;;;;4992571;28;20204;-58
2024/02/16 01:48:15;;;;;;;14.50;9.83;;;;;;;;;;4992838;28;20205;-58
2024/02/16 01:50:44;;;;;;;12.13;9.70;;;;;;;;;;4992338;28;20280;-58
2024/02/16 01:53:10;;;;;;;10.90;9.90;;;;;;;;;;4991770;28;20211;-58
2024/02/16 01:55:39;;;;;;;10.87;9.03;;;;;;;;;;4993107;28;20200;-58
2024/02/16 01:58:07;;;;;;;10.63;9.50;;;;;;;;;;4992374;28;20625;-58
2024/02/16 02:00:34;;;;;;;14.43;10.17;;;;;;;;;;4992365;28;20320;-58
2024/02/16 02:03:01;;;;;;;9.90;8.90;;;;;;;;;;4991564;28;20628;-58
2024/02/16 02:05:29;;;;;;;8.63;7.73;;;;;;;;;;4992538;28;20195;-58
2024/02/16 02:07:56;;;;;;;12.00;9.00;;;;;;;;;;4992391;28;20273;-58
2024/02/16 02:10:23;;;;;;;13.03;9.53;;;;;;;;;;4992520;28;20280;-58
2024/02/16 02:12:52;;;;;;;9.63;8.67;;;;;;;;;;4992948;28;20629;-58
2024/02/16 02:15:19;;;;;;;10.70;9.00;;;;;;;;;;4991579;28;20201;-58
2024/02/16 02:17:46;;;;;;;8.93;8.03;;;;;;;;;;4992330;28;20283;-58
2024/02/16 02:20:14;;;;;;;11.43;8.87;;;;;;;;;;4992001;28;20230;-58
2024/02/16 02:22:43;;;;;;;10.97;8.53;;;;;;;;;;4990769;28;20207;-58
2024/02/16 02:25:11;;;;;;;10.50;8.60;;;;;;;;;;4991411;28;20220;-58
2024/02/16 02:27:38;;;;;;;9.17;8.10;;;;;;;;;;4991321;28;20292;-58
2024/02/16 02:30:06;;;;;;;9.00;7.47;;;;;;;;;;4992455;28;20225;-58
2024/02/16 02:32:33;;;;;;;9.13;8.27;;;;;;;;;;4992246;28;20207;-58
2024/02/16 02:35:01;;;;;;;9.80;7.93;;;;;;;;;;4991438;28;20614;-58
2024/02/16 02:37:28;;;;;;;9.10;7.83;;;;;;;;;;4995677;28;20233;-58
2024/02/16 02:39:57;;;;;;;9.43;8.53;;;;;;;;;;4993023;28;20272;-58
2024/02/16 02:42:28;;;;;;;10.30;8.17;;;;;;;;;;4992597;28;20241;-58
2024/02/16 02:44:55;;;;;;;11.43;7.97;;;;;;;;;;4991446;28;20603;-58
2024/02/16 02:47:22;;;;;;;12.87;9.13;;;;;;;;;;4992150;28;20264;-58
2024/02/16 02:49:49;;;;;;;10.00;8.90;;;;;;;;;;4990036;28;20717;-58
2024/02/16 02:52:17;;;;;;;11.90;9.80;;;;;;;;;;4992463;28;20267;-58
2024/02/16 02:54:44;;;;;;;10.43;9.37;;;;;;;;;;5000027;28;20254;-58
2024/02/16 02:57:13;;;;;;;11.50;9.50;;;;;;;;;;5015984;28;20209;-58
2024/02/16 02:59:40;;;;;;;9.60;8.50;;;;;;;;;;5014926;28;20232;-59
2024/02/16 03:02:08;;;;;;;10.47;8.23;;;;;;;;;;5015181;28;20211;-58
2024/02/16 03:04:36;;;;;;;12.00;9.63;;;;;;;;;;5014160;28;20230;-58
2024/02/16 03:07:03;;;;;;;9.87;7.93;;;;;;;;;;5015023;28;20615;-58
2024/02/16 03:09:31;;;;;;;12.07;9.33;;;;;;;;;;5014901;28;20247;-58
2024/02/16 03:11:58;;;;;;;10.60;8.40;;;;;;;;;;4997711;28;20199;-58
2024/02/16 03:14:26;;;;;;;10.57;9.47;;;;;;;;;;4994533;28;20248;-58
2024/02/16 03:16:54;;;;;;;10.50;9.50;;;;;;;;;;4995530;28;20249;-58
2024/02/16 03:19:21;;;;;;;15.33;10.60;;;;;;;;;;4995299;28;20205;-58
2024/02/16 03:21:49;;;;;;;10.37;9.00;;;;;;;;;;4995336;28;20238;-58
2024/02/16 03:24:16;;;;;;;10.93;9.53;;;;;;;;;;4994209;28;20260;-58
2024/02/16 03:26:43;;;;;;;11.67;9.43;;;;;;;;;;4995694;28;20252;-58
2024/02/16 03:29:10;;;;;;;10.87;9.47;;;;;;;;;;4995005;28;20215;-58
2024/02/16 03:31:39;;;;;;;12.87;9.80;;;;;;;;;;4994764;28;20281;-58
2024/02/16 03:34:06;;;;;;;12.40;9.40;;;;;;;;;;4994062;28;20209;-57
2024/02/16 03:36:34;;;;;;;13.00;9.63;;;;;;;;;;4995026;28;20248;-58
2024/02/16 03:39:02;;;;;;;9.37;7.53;;;;;;;;;;4994850;28;20205;-58
2024/02/16 03:41:29;;;;;;;13.10;9.83;;;;;;;;;;4994758;28;20276;-58
2024/02/16 03:43:58;;;;;;;10.37;9.17;;;;;;;;;;4994499;28;20694;-58
2024/02/16 03:46:25;;;;;;;11.37;8.40;;;;;;;;;;4994887;28;20289;-58
2024/02/16 03:48:54;;;;;;;12.07;10.07;;;;;;;;;;4994637;28;20211;-58
2024/02/16 03:51:21;;;;;;;11.13;9.20;;;;;;;;;;4994774;28;20222;-58
2024/02/16 03:54:07;;;;;;;11.40;10.10;;;;;;;;;;4994722;28;20683;-58
2024/02/16 03:56:35;;;;;;;10.63;8.83;;;;;;;;;;4994772;28;20264;-58
2024/02/16 03:59:01;;;;;;;16.23;8.63;;;;;;;;;;4995188;28;20210;-57
2024/02/16 04:01:28;;;;;;;9.90;8.90;;;;;;;;;;4994932;28;20304;-58
2024/02/16 04:03:57;;;;;;;10.27;8.57;;;;;;;;;;4993517;28;20728;-58
2024/02/16 04:06:24;;;;;;;16.80;9.83;;;;;;;;;;4994527;28;20744;-58
2024/02/16 04:08:51;;;;;;;9.50;8.57;;;;;;;;;;4994578;28;20209;-58
2024/02/16 04:11:19;;;;;;;13.67;8.73;;;;;;;;;;4994723;28;20226;-57
2024/02/16 04:13:46;;;;;;;10.57;9.13;;;;;;;;;;4994697;28;20250;-58
2024/02/16 04:16:13;;;;;;;9.53;8.03;;;;;;;;;;4994182;28;20217;-58
2024/02/16 04:18:40;;;;;;;14.60;8.97;;;;;;;;;;4994712;28;20637;-57
2024/02/16 04:21:09;;;;;;;11.57;9.43;;;;;;;;;;4993965;28;20229;-58
2024/02/16 04:23:36;;;;;;;8.73;7.90;;;;;;;;;;4993454;28;20261;-58
2024/02/16 04:26:06;;;;;;;9.37;8.23;;;;;;;;;;4993948;28;20712;-58
2024/02/16 04:28:33;;;;;;;12.13;8.57;;;;;;;;;;4991993;28;20284;-58
2024/02/16 04:31:00;;;;;;;7.87;7.17;;;;;;;;;;4993926;28;20224;-58
2024/02/16 04:33:28;;;;;;;10.03;8.47;;;;;;;;;;4990908;28;20209;-58
2024/02/16 04:35:55;;;;;;;12.50;8.80;;;;;;;;;;4974592;28;20204;-58
2024/02/16 04:38:23;;;;;;;8.63;7.73;;;;;;;;;;4974273;28;20265;-58
2024/02/16 04:40:51;;;;;;;8.57;7.60;;;;;;;;;;4974040;28;20225;-58
2024/02/16 04:43:18;;;;;;;10.37;8.47;;;;;;;;;;4973570;28;20273;-58
2024/02/16 04:45:45;;;;;;;10.50;7.90;;;;;;;;;;4974338;28;20271;-58
2024/02/16 04:48:13;;;;;;;12.30;8.50;;;;;;;;;;4974093;28;20201;-58
2024/02/16 04:50:40;;;;;;;12.07;9.03;;;;;;;;;;4980077;28;20713;-58
2024/02/16 04:53:07;;;;;;;10.80;8.90;;;;;;;;;;4992980;28;20632;-58
2024/02/16 04:55:36;;;;;;;18.67;10.57;;;;;;;;;;5002121;28;20201;-58
2024/02/16 04:58:05;;;;;;;14.53;11.47;;;;;;;;;;4989161;28;20250;-58
2024/02/16 05:00:32;;;;;;;13.90;11.30;;;;;;;;;;4988500;28;20240;-59
2024/02/16 05:02:59;;;;;;;15.27;11.57;;;;;;;;;;4991047;28;20252;-59
2024/02/16 05:05:28;;;;;;;12.73;11.27;;;;;;;;;;4993164;28;20228;-59
2024/02/16 05:07:55;;;;;;;12.60;10.37;;;;;;;;;;4993184;28;20209;-59
2024/02/16 05:10:22;;;;;;;12.73;10.60;;;;;;;;;;5011609;28;20730;-59
2024/02/16 05:12:51;;;;;;;14.83;10.50;;;;;;;;;;4996848;28;20260;-59
2024/02/16 05:15:18;;;;;;;14.57;10.67;;;;;;;;;;4986490;28;20259;-59
2024/02/16 05:17:49;;;;;;;12.00;10.30;;;;;;;;;;4993305;28;20264;-59
2024/02/16 05:20:16;;;;;;;18.83;11.40;;;;;;;;;;4992837;28;20258;-59
2024/02/16 05:22:45;;;;;;;15.67;11.47;;;;;;;;;;4991786;28;20629;-59
2024/02/16 05:25:13;;;;;;;13.73;10.87;;;;;;;;;;4991732;28;20229;-59
2024/02/16 05:27:40;;;;;;;13.73;10.97;;;;;;;;;;4992668;28;20668;-59
2024/02/16 05:30:12;;;;;;;14.97;10.67;;;;;;;;;;4993613;28;20230;-59
2024/02/16 05:32:40;;;;;;;16.27;10.77;;;;;;;;;;4995651;28;20753;-59
2024/02/16 05:35:11;;;;;;;16.07;10.57;;;;;;;;;;4994514;28;20626;-59
2024/02/16 05:37:40;;;;;;;14.80;11.67;;;;;;;;;;4992686;28;20216;-59
2024/02/16 05:40:18;;;;;;;12.67;10.17;;;;;;;;;;4992241;28;20605;-59
2024/02/16 05:42:46;;;;;;;16.60;11.47;;;;;;;;;;4992774;28;20210;-59
2024/02/16 05:45:15;;;;;;;13.13;10.77;;;;;;;;;;4991668;28;20287;-58
2024/02/16 05:47:42;;;;;;;17.13;11.33;;;;;;;;;;4998532;28;20208;-59
2024/02/16 05:50:11;;;;;;;13.70;12.13;;;;;;;;;;5000207;28;20276;-59
2024/02/16 05:52:39;;;;;;;17.40;12.07;;;;;;;;;;4990276;28;20257;-59
2024/02/16 05:55:07;;;;;;;18.40;10.57;;;;;;;;;;4991733;28;20198;-59
2024/02/16 05:57:34;;;;;;;11.27;9.60;;;;;;;;;;4992986;28;20279;-59
2024/02/16 06:00:03;;;;;;;10.10;8.57;;;;;;;;;;5009667;28;20304;-59
2024/02/16 06:02:34;;;;;;;13.37;8.97;;;;;;;;;;5012059;28;20625;-59
2024/02/16 06:05:02;;;;;;;12.43;9.33;;;;;;;;;;5008012;28;20267;-59
2024/02/16 06:07:30;;;;;;;14.50;9.17;;;;;;;;;;4992236;28;20209;-59
2024/02/16 06:09:57;;;;;;;13.37;7.97;;;;;;;;;;4992508;28;20234;-59
2024/02/16 06:12:28;;;;;;;11.90;8.80;;;;;;;;;;4992265;28;20210;-59
2024/02/16 06:14:57;;;;;;;10.47;8.73;;;;;;;;;;4991688;28;20206;-59
2024/02/16 06:17:24;;;;;;;11.20;9.23;;;;;;;;;;4992389;28;20206;-59
2024/02/16 06:19:53;;;;;;;16.20;8.80;;;;;;;;;;4992172;28;20272;-59
2024/02/16 06:22:20;;;;;;;12.13;9.13;;;;;;;;;;5000878;28;20275;-59
2024/02/16 06:24:47;;;;;;;10.97;9.20;;;;;;;;;;5011258;28;20410;-59
2024/02/16 06:27:15;;;;;;;9.93;8.00;;;;;;;;;;4998201;28;20260;-59
2024/02/16 06:29:42;;;;;;;10.60;8.07;;;;;;;;;;4992563;28;20229;-59
2024/02/16 06:32:11;;;;;;;11.30;9.40;;;;;;;;;;4992202;28;20273;-59
2024/02/16 06:34:38;;;;;;;11.50;10.33;;;;;;;;;;4997999;28;20204;-60
2024/02/16 06:37:07;;;;;;;13.83;10.83;;;;;;;;;;4996277;28;20206;-60
2024/02/16 06:39:34;;;;;;;24.90;12.23;;;;;;;;;;5008329;28;20203;-59
2024/02/16 06:42:01;;;;;;;15.77;13.60;;;;;;;;;;5016241;28;20569;-59
2024/02/16 06:44:28;;;;;;;12.27;10.83;;;;;;;;;;5015327;28;20203;-60
2024/02/16 06:46:55;;;;;;;12.63;10.60;;;;;;;;;;5015522;28;20271;-60
2024/02/16 06:49:23;;;;;;;16.03;11.70;;;;;;;;;;5015646;28;20671;-60
2024/02/16 06:51:50;;;;;;;17.50;11.53;;;;;;;;;;5015877;28;20256;-59
2024/02/16 06:54:18;;;;;;;15.00;11.13;;;;;;;;;;5017718;28;20236;-59
2024/02/16 06:56:46;;;;;;;18.67;12.07;;;;;;;;;;5015469;28;20627;-60
2024/02/16 06:59:13;;;;;;;17.40;11.27;;;;;;;;;;5015331;28;20206;-60
2024/02/16 07:01:40;;;;;;;13.77;11.63;;;;;;;;;;5015106;28;20236;-59
2024/02/16 07:04:07;;;;;;;14.00;10.00;;;;;;;;;;5014581;28;20260;-60
2024/02/16 07:06:35;;;;;;;12.50;9.90;;;;;;;;;;5015139;28;20225;-60
2024/02/16 07:09:02;;;;;;;12.40;10.97;;;;;;;;;;5015229;28;20253;-60
2024/02/16 07:11:31;;;;;;;14.57;9.63;;;;;;;;;;5013795;28;20305;-60
2024/02/16 07:14:02;;;;;;;12.27;9.43;;;;;;;;;;5013958;28;20636;-59
2024/02/16 07:16:29;;;;;;;16.53;9.57;;;;;;;;;;5015337;28;20225;-60
2024/02/16 07:18:56;;;;;;;10.97;7.97;;;;;;;;;;5015574;28;20682;-60
2024/02/16 07:21:25;;;;;;;13.00;9.73;;;;;;;;;;5014763;28;20283;-58
2024/02/16 07:23:53;;;;;;;11.90;9.57;;;;;;;;;;5000484;28;20440;-58
2024/02/16 07:26:20;;;;;;;17.87;9.13;;;;;;;;;;4994449;28;20283;-64
2024/02/16 07:28:49;;;;;;;11.43;10.30;;;;;;;;;;5005796;28;20204;-60
2024/02/16 07:31:16;;;;;;;10.07;7.50;;;;;;;;;;5012993;28;20726;-60
2024/02/16 07:33:44;;;;;;;13.47;7.73;;;;;;;;;;5012030;28;20234;-61
2024/02/16 07:36:11;;;;;;;10.57;7.60;;;;;;;;;;5012748;28;20295;-60
2024/02/16 07:38:38;;;;;;;11.40;7.43;;;;;;;;;;5012685;28;20205;-60
2024/02/16 07:41:07;;;;;;;11.07;7.17;;;;;;;;;;5012611;28;20229;-60
2024/02/16 07:43:34;;;;;;;6.97;6.30;;;;;;;;;;5011734;28;20261;-60
2024/02/16 07:46:03;;;;;;;13.47;7.53;;;;;;;;;;5012535;28;20454;-60
2024/02/16 07:48:30;;;;;;;10.07;7.13;;;;;;;;;;5014333;28;20558;-60
2024/02/16 07:51:02;;;;;;;9.80;6.83;;;;;;;;;;5014091;28;20233;-60
2024/02/16 07:53:29;;;;;;;6.07;5.50;;;;;;;;;;5013938;28;20330;-60
2024/02/16 07:55:58;;;;;;;12.43;6.30;;;;;;;;;;5014392;28;20225;-60
2024/02/16 07:58:25;;;;;;;6.57;5.83;;;;;;;;;;5010779;28;20209;-60
2024/02/16 08:00:54;;;;;;;6.77;6.07;;;;;;;;;;4994300;28;20232;-60
2024/02/16 08:03:22;;;;;;;7.27;6.57;;;;;;;;;;4993839;28;20217;-60
2024/02/16 08:05:50;;;;;;;12.07;6.67;;;;;;;;;;4994657;28;20225;-60
2024/02/16 08:08:17;;;;;;;8.73;7.83;;;;;;;;;;4994732;28;20204;-60
2024/02/16 08:10:45;;;;;;;16.53;9.53;;;;;;;;;;4995096;28;20267;-60
2024/02/16 08:13:12;;;;;;;9.20;6.67;;;;;;;;;;4994589;28;20677;-60
2024/02/16 08:15:39;;;;;;;7.50;6.73;;;;;;;;;;4994782;28;20194;-60
2024/02/16 08:18:06;;;;;;;5.40;4.90;;;;;;;;;;4994306;28;20206;-60
2024/02/16 08:20:36;;;;;;;8.60;6.13;;;;;;;;;;4993948;28;20236;-60
2024/02/16 08:23:03;;;;;;;7.67;5.10;;;;;;;;;;4993422;28;20304;-60
2024/02/16 08:25:33;;;;;;;7.97;6.13;;;;;;;;;;4994095;28;20225;-60
2024/02/16 08:28:00;;;;;;;9.33;6.73;;;;;;;;;;4994109;28;20648;-60
2024/02/16 08:30:27;;;;;;;10.57;6.97;;;;;;;;;;4993686;28;20575;-60
2024/02/16 08:32:54;;;;;;;8.93;7.27;;;;;;;;;;5011243;28;20263;-60
2024/02/16 08:35:22;;;;;;;8.20;6.20;;;;;;;;;;5012940;28;20203;-60
2024/02/16 08:37:50;;;;;;;11.57;7.47;;;;;;;;;;5011368;28;20209;-60
2024/02/16 08:40:17;;;;;;;13.33;8.70;;;;;;;;;;5013511;28;20307;-60
2024/02/16 08:42:45;;;;;;;9.27;7.70;;;;;;;;;;5011641;28;20213;-61
2024/02/16 08:45:13;;;;;;;10.07;7.63;;;;;;;;;;5012143;28;20690;-60
2024/02/16 08:47:40;;;;;;;15.77;8.50;;;;;;;;;;5011962;28;20217;-60
2024/02/16 08:50:08;;;;;;;11.30;6.80;;;;;;;;;;5013233;28;20221;-60
2024/02/16 08:52:35;;;;;;;9.37;6.13;;;;;;;;;;5013288;28;20231;-60
2024/02/16 08:55:04;;;;;;;6.27;5.67;;;;;;;;;;5012087;28;20815;-60
2024/02/16 08:57:33;;;;;;;11.77;4.83;;;;;;;;;;5012892;28;20203;-60
2024/02/16 09:00:00;;;;;;;6.60;5.53;;;;;;;;;;5012911;28;20720;-60
2024/02/16 09:02:31;;;;;;;8.03;4.97;;;;;;;;;;5012710;28;20207;-60
2024/02/16 09:04:58;;;;;;;9.73;4.77;;;;;;;;;;4998347;28;20202;-60
2024/02/16 09:07:29;;;;;;;7.07;5.70;;;;;;;;;;4993330;28;20646;-61
2024/02/16 09:09:57;;;;;;;7.37;5.57;;;;;;;;;;4993421;28;20219;-60
2024/02/16 09:12:29;;;;;;;6.90;5.43;;;;;;;;;;4993441;28;20241;-60
2024/02/16 09:14:56;;;;;;;8.80;6.90;;;;;;;;;;4992171;28;20210;-60
2024/02/16 09:17:23;;;;;;;6.93;5.80;;;;;;;;;;4992984;28;20822;-60
2024/02/16 09:19:50;;;;;;;6.63;5.93;;;;;;;;;;4992737;28;20231;-60
2024/02/16 09:22:18;;;;;;;7.00;6.40;;;;;;;;;;4992630;28;20616;-61
2024/02/16 09:24:46;;;;;;;9.87;6.37;;;;;;;;;;5000322;28;20206;-60
2024/02/16 09:27:14;;;;;;;8.23;6.30;;;;;;;;;;5012414;28;20219;-60
2024/02/16 09:29:42;;;;;;;8.37;6.43;;;;;;;;;;5012426;28;20276;-59
2024/02/16 09:32:10;;;;;;;9.87;7.33;;;;;;;;;;5012316;28;20686;-59
2024/02/16 09:34:37;;;;;;;8.67;6.80;;;;;;;;;;5011350;28;20206;-59
2024/02/16 09:37:05;;;;;;;10.63;7.47;;;;;;;;;;5009365;28;20202;-59
2024/02/16 09:39:32;;;;;;;7.27;5.47;;;;;;;;;;4997075;28;20205;-59
2024/02/16 09:41:59;;;;;;;8.27;6.93;;;;;;;;;;5012198;28;20252;-59
2024/02/16 09:44:27;;;;;;;7.47;6.03;;;;;;;;;;5011738;28;20220;-59
2024/02/16 09:46:56;;;;;;;9.00;6.43;;;;;;;;;;5013322;28;20225;-59
2024/02/16 09:49:24;;;;;;;7.37;6.70;;;;;;;;;;5011975;28;20554;-59
2024/02/16 09:51:51;;;;;;;7.93;6.00;;;;;;;;;;5012288;28;20202;-59
2024/02/16 09:54:19;;;;;;;13.37;7.07;;;;;;;;;;5009531;28;20198;-59
2024/02/16 09:56:46;;;;;;;14.93;7.73;;;;;;;;;;5011482;28;20739;-58
2024/02/16 09:59:14;;;;;;;6.60;5.83;;;;;;;;;;5012300;28;20210;-59
2024/02/16 10:01:41;;;;;;;6.70;5.60;;;;;;;;;;5011817;28;20233;-59
2024/02/16 10:04:09;;;;;;;5.47;4.97;;;;;;;;;;5011203;28;20252;-59
2024/02/16 10:06:48;;;;;;;7.37;5.53;;;;;;;;;;5011804;28;20768;-59
2024/02/16 10:09:23;;;;;;;7.13;4.97;;;;;;;;;;5010802;28;20238;-59
2024/02/16 10:11:51;;;;;;;8.97;5.00;;;;;;;;;;4985881;28;20209;-58
2024/02/16 10:14:19;;;;;;;7.07;5.73;;;;;;;;;;5011325;28;20241;-59
2024/02/16 10:16:47;;;;;;;8.37;5.43;;;;;;;;;;5011829;28;20199;-60
2024/02/16 10:19:15;;;;;;;6.63;5.00;;;;;;;;;;5012171;28;20235;-60
2024/02/16 10:21:43;;;;;;;6.60;4.53;;;;;;;;;;5011751;28;20277;-59
2024/02/16 10:24:11;;;;;;;5.87;5.30;;;;;;;;;;5011348;28;20264;-59
2024/02/16 10:26:39;;;;;;;8.47;5.00;;;;;;;;;;5010627;28;20211;-59
2024/02/16 10:29:08;;;;;;;4.67;3.97;;;;;;;;;;5011964;28;20245;-59
2024/02/16 10:31:35;;;;;;;8.00;5.27;;;;;;;;;;5011796;28;20223;-60
2024/02/16 10:34:05;;;;;;;7.00;5.67;;;;;;;;;;5010962;28;20207;-60
2024/02/16 10:36:34;;;;;;;8.07;5.27;;;;;;;;;;5011813;28;20257;-59
2024/02/16 10:39:04;;;;;;;6.03;5.43;;;;;;;;;;5011736;28;20257;-60
2024/02/16 10:41:34;;;;;;;8.07;5.30;;;;;;;;;;5011461;28;20233;-60
2024/02/16 10:44:02;;;;;;;6.60;5.00;;;;;;;;;;4991238;28;20763;-60
2024/02/16 10:46:29;;;;;;;7.43;6.73;;;;;;;;;;4991935;28;20219;-60
2024/02/16 10:48:57;;;;;;;8.97;7.00;;;;;;;;;;4989947;28;20634;-60
2024/02/16 10:51:27;;;;;;;11.13;9.20;;;;;;;;;;4992076;28;20228;-60
2024/02/16 10:53:56;;;;;;;12.03;8.47;;;;;;;;;;4991190;28;20583;-60
2024/02/16 10:56:34;;;;;;;10.10;9.17;;;;;;;;;;4991741;28;20250;-61
2024/02/16 10:59:03;;;;;;;10.93;9.73;;;;;;;;;;4995378;28;20671;-60
2024/02/16 11:01:34;;;;;;;12.13;9.77;;;;;;;;;;5011196;28;20258;-60
2024/02/16 11:04:08;;;;;;;10.63;9.67;;;;;;;;;;5010661;28;20211;-60
2024/02/16 11:06:45;;;;;;;14.53;9.47;;;;;;;;;;5011387;28;20232;-59
2024/02/16 11:09:24;;;;;;;9.90;8.60;;;;;;;;;;5011299;28;20679;-59
2024/02/16 11:11:53;;;;;;;9.07;8.03;;;;;;;;;;4994329;28;20258;-59
2024/02/16 11:14:23;;;;;;;8.17;7.47;;;;;;;;;;4990987;28;20239;-59
2024/02/16 11:16:50;;;;;;;9.03;7.00;;;;;;;;;;4991786;28;20227;-59
2024/02/16 11:19:19;;;;;;;8.90;7.53;;;;;;;;;;4993017;28;20200;-59
2024/02/16 11:22:01;;;;;;;10.63;7.37;;;;;;;;;;4995101;28;20207;-60
2024/02/16 11:24:33;;;;;;;8.17;7.40;;;;;;;;;;4991352;28;20200;-59
2024/02/16 11:27:02;;;;;;;7.30;6.70;;;;;;;;;;4995119;28;20220;-59
2024/02/16 11:29:33;;;;;;;7.70;7.10;;;;;;;;;;4994978;28;20204;-59
2024/02/16 11:32:00;;;;;;;13.50;7.23;;;;;;;;;;4994955;28;20287;-59
2024/02/16 11:34:27;;;;;;;8.87;6.93;;;;;;;;;;4993963;28;20627;-59
2024/02/16 11:36:55;;;;;;;9.03;8.07;;;;;;;;;;4995300;28;20256;-60
2024/02/16 11:39:23;;;;;;;7.77;7.13;;;;;;;;;;4994689;28;20695;-59
2024/02/16 11:42:01;;;;;;;9.70;8.77;;;;;;;;;;4995217;28;20718;-60
2024/02/16 11:44:28;;;;;;;11.37;7.77;;;;;;;;;;4993785;28;20236;-59
2024/02/16 11:46:56;;;;;;;11.17;8.50;;;;;;;;;;4994738;28;20245;-59
2024/02/16 11:49:23;;;;;;;8.87;8.07;;;;;;;;;;4994490;28;20684;-59
2024/02/16 11:51:50;;;;;;;8.67;7.70;;;;;;;;;;4994536;28;20271;-60
2024/02/16 11:54:17;;;;;;;8.87;8.17;;;;;;;;;;4993761;28;20623;-59
2024/02/16 11:56:45;;;;;;;8.13;7.40;;;;;;;;;;4994546;28;20200;-60
2024/02/16 11:59:15;;;;;;;8.30;7.60;;;;;;;;;;4994896;28;20284;-60
2024/02/16 12:01:52;;;;;;;8.50;7.73;;;;;;;;;;4994331;28;20290;-59
2024/02/16 12:04:24;;;;;;;8.23;7.53;;;;;;;;;;4993491;28;20250;-59
2024/02/16 12:06:52;;;;;;;16.47;10.23;;;;;;;;;;4994334;28;20585;-60
2024/02/16 12:09:20;;;;;;;8.67;7.87;;;;;;;;;;4994434;28;20754;-60
2024/02/16 12:11:48;;;;;;;8.40;6.97;;;;;;;;;;4994206;28;20242;-60
2024/02/16 12:14:17;;;;;;;7.23;6.67;;;;;;;;;;4994103;28;20204;-59
2024/02/16 12:16:44;;;;;;;9.40;7.90;;;;;;;;;;4994019;28;20694;-59
2024/02/16 12:19:13;;;;;;;9.90;7.17;;;;;;;;;;4994217;28;20338;-59
2024/02/16 12:21:40;;;;;;;8.90;8.23;;;;;;;;;;4994092;28;20223;-59
2024/02/16 12:24:08;;;;;;;10.00;9.10;;;;;;;;;;4993022;28;20467;-61
2024/02/16 12:26:35;;;;;;;10.83;9.53;;;;;;;;;;4992192;28;20505;-59
2024/02/16 12:29:02;;;;;;;8.67;7.90;;;;;;;;;;4993552;28;20203;-61
2024/02/16 12:31:31;;;;;;;9.30;8.37;;;;;;;;;;4992395;28;20595;-60
2024/02/16 12:33:58;;;;;;;10.00;9.00;;;;;;;;;;4989322;28;20203;-62
2024/02/16 12:36:26;;;;;;;9.17;8.17;;;;;;;;;;4993410;28;20203;-59
2024/02/16 12:38:54;;;;;;;10.07;8.50;;;;;;;;;;4993191;28;20204;-57
2024/02/16 12:41:21;;;;;;;10.33;8.57;;;;;;;;;;4993487;28;20228;-63
2024/02/16 12:43:48;;;;;;;9.37;8.47;;;;;;;;;;4991489;28;20207;-63
2024/02/16 12:46:15;;;;;;;7.90;7.20;;;;;;;;;;4993419;28;20200;-63
2024/02/16 12:48:44;;;;;;;8.57;7.87;;;;;;;;;;4992037;28;20220;-64
2024/02/16 12:51:12;;;;;;;7.10;6.47;;;;;;;;;;4989974;28;20231;-62
2024/02/16 12:53:41;;;;;;;7.77;7.00;;;;;;;;;;4990221;28;20236;-62
2024/02/16 12:56:09;;;;;;;6.07;5.60;;;;;;;;;;4993321;28;20232;-66
2024/02/16 12:58:36;;;;;;;6.50;6.03;;;;;;;;;;4993329;28;20235;-64
2024/02/16 13:01:05;;;;;;;7.43;6.67;;;;;;;;;;4990898;28;20251;-64
2024/02/16 13:03:33;;;;;;;6.47;5.93;;;;;;;;;;4990223;28;20679;-63
2024/02/16 13:06:02;;;;;;;23.77;5.80;;;;;;;;;;4991861;28;20207;-63
2024/02/16 13:08:29;;;;;;;6.03;5.47;;;;;;;;;;4992896;28;20251;-62
2024/02/16 13:10:56;;;;;;;6.33;5.90;;;;;;;;;;4990982;28;20868;-62
2024/02/16 13:13:24;;;;;;;6.97;6.33;;;;;;;;;;4995644;28;20200;-62
2024/02/16 13:15:51;;;;;;;7.00;6.50;;;;;;;;;;4991596;28;20212;-61
2024/02/16 13:18:18;;;;;;;7.77;6.37;;;;;;;;;;4991939;28;20200;-62
2024/02/16 13:20:47;;;;;;;6.83;6.30;;;;;;;;;;4991655;28;20224;-63
2024/02/16 13:23:16;;;;;;;8.23;6.37;;;;;;;;;;4990942;28;20643;-62
2024/02/16 13:25:43;;;;;;;6.07;5.17;;;;;;;;;;4991766;28;20261;-63
2024/02/16 13:28:10;;;;;;;5.73;5.40;;;;;;;;;;4991170;28;20521;-64
2024/02/16 13:30:38;;;;;;;7.07;6.47;;;;;;;;;;4990231;28;20219;-62
2024/02/16 13:33:05;;;;;;;7.00;6.50;;;;;;;;;;4990475;28;20259;-61
2024/02/16 13:35:35;;;;;;;11.87;9.47;;;;;;;;;;4991663;28;20262;-62
2024/02/16 13:38:02;;;;;;;11.83;9.43;;;;;;;;;;4988850;28;20204;-63
2024/02/16 13:40:30;;;;;;;10.23;9.10;;;;;;;;;;4991683;28;20223;-63
2024/02/16 13:43:01;;;;;;;12.30;10.17;;;;;;;;;;4989795;28;20259;-64
2024/02/16 13:45:28;;;;;;;10.27;9.27;;;;;;;;;;4987189;28;20287;-60
2024/02/16 13:47:58;;;;;;;12.57;8.47;;;;;;;;;;4996175;28;20222;-60
2024/02/16 13:50:26;;;;;;;8.03;7.23;;;;;;;;;;5009269;28;20254;-61
2024/02/16 13:52:53;;;;;;;10.57;8.13;;;;;;;;;;5010168;28;20628;-60
2024/02/16 13:55:20;;;;;;;9.00;7.23;;;;;;;;;;5009904;28;20207;-60
2024/02/16 13:57:49;;;;;;;8.37;7.30;;;;;;;;;;5010752;28;20211;-60
2024/02/16 14:00:16;;;;;;;9.80;7.13;;;;;;;;;;5009295;28;20227;-60
2024/02/16 14:02:44;;;;;;;7.73;6.73;;;;;;;;;;5010699;28;20249;-60
2024/02/16 14:05:12;;;;;;;8.43;7.63;;;;;;;;;;5011198;28;20286;-61
2024/02/16 14:07:40;;;;;;;7.63;6.57;;;;;;;;;;5012074;28;20218;-61
2024/02/16 14:10:07;;;;;;;6.20;5.60;;;;;;;;;;5011748;28;20227;-61
2024/02/16 14:12:34;;;;;;;4.57;4.20;;;;;;;;;;5011998;28;20258;-61
2024/02/16 14:15:04;;;;;;;4.60;4.30;;;;;;;;;;5010905;28;20207;-61
2024/02/16 14:17:32;;;;;;;11.63;5.70;;;;;;;;;;4996747;28;20196;-61
2024/02/16 14:19:59;;;;;;;8.80;4.50;;;;;;;;;;4992251;28;20278;-61
2024/02/16 14:22:29;;;;;;;7.80;4.90;;;;;;;;;;4992219;28;20275;-61
2024/02/16 14:24:56;;;;;;;5.50;5.07;;;;;;;;;;4991470;28;20204;-61
2024/02/16 14:27:29;;;;;;;6.80;4.30;;;;;;;;;;4992050;28;20884;-61
2024/02/16 14:29:56;;;;;;;5.43;4.23;;;;;;;;;;4992279;28;20259;-61
2024/02/16 14:32:25;;;;;;;4.20;3.90;;;;;;;;;;4992008;28;20251;-60
2024/02/16 14:34:53;;;;;;;5.33;3.23;;;;;;;;;;4991600;28;20204;-61
2024/02/16 14:37:20;;;;;;;4.03;3.73;;;;;;;;;;4992059;28;20211;-61
2024/02/16 14:39:48;;;;;;;4.07;3.43;;;;;;;;;;4991879;28;20282;-61